Time;durP1;ratioP1;P1;durP2;ratioP2;P2;SDS_P1;SDS_P2;PMS_P1;PMS_P2;Temp;Humidity;BMP_temperature;BMP_pressure;BME280_temperature;BME280_humidity;BME280_pressure;Samples;Min_cycle;Max_cycle;Signal;HPM_P1;HPM_P2
2023/11/11 00:00:08;;;;;;;9.50;5.05;;;7.30;99.90;;;;;;5073583;28;20028;-77
2023/11/11 00:02:34;;;;;;;11.45;5.63;;;7.10;99.90;;;;;;5073933;28;20123;-77
2023/11/11 00:05:00;;;;;;;9.20;6.25;;;7.20;99.90;;;;;;5073581;28;20060;-77
2023/11/11 00:07:26;;;;;;;13.43;7.55;;;7.10;99.90;;;;;;5073477;28;20025;-77
2023/11/11 00:09:53;;;;;;;13.50;7.93;;;7.10;99.90;;;;;;5072597;28;20478;-77
2023/11/11 00:12:18;;;;;;;15.20;8.45;;;7.10;99.90;;;;;;5072356;28;20048;-79
2023/11/11 00:14:44;;;;;;;10.95;6.93;;;7.10;99.90;;;;;;5073547;28;20025;-77
2023/11/11 00:17:10;;;;;;;12.05;5.30;;;7.00;99.90;;;;;;5073452;28;20028;-78
2023/11/11 00:19:36;;;;;;;8.20;4.97;;;6.90;99.90;;;;;;5075144;28;20081;-78
2023/11/11 00:22:02;;;;;;;13.40;4.55;;;6.80;99.90;;;;;;5077293;28;20486;-78
2023/11/11 00:24:29;;;;;;;8.05;4.53;;;6.70;99.90;;;;;;5076819;28;20575;-78
2023/11/11 00:26:55;;;;;;;5.30;3.75;;;6.70;99.90;;;;;;5077004;28;20028;-78
2023/11/11 00:29:22;;;;;;;7.57;3.78;;;6.70;99.90;;;;;;5076730;28;20039;-77
2023/11/11 00:31:48;;;;;;;5.25;3.00;;;6.60;99.90;;;;;;5076543;28;20033;-79
2023/11/11 00:34:15;;;;;;;8.05;2.70;;;6.60;99.90;;;;;;5076418;28;20128;-77
2023/11/11 00:36:42;;;;;;;5.63;1.90;;;6.50;99.90;;;;;;5076883;28;20024;-77
2023/11/11 00:39:10;;;;;;;3.72;1.98;;;6.50;99.90;;;;;;5076222;28;20378;-78
2023/11/11 00:41:37;;;;;;;5.03;2.28;;;6.40;99.90;;;;;;5076733;28;20083;-78
2023/11/11 00:44:08;;;;;;;3.92;1.90;;;6.40;99.90;;;;;;5076147;28;20111;-78
2023/11/11 00:46:37;;;;;;;4.65;1.63;;;6.40;99.90;;;;;;5076730;28;20064;-77
2023/11/11 00:49:03;;;;;;;3.50;1.65;;;6.40;99.90;;;;;;5076558;28;20051;-78
2023/11/11 00:51:29;;;;;;;1.85;1.48;;;6.40;99.90;;;;;;5075249;28;20032;-77
2023/11/11 00:53:56;;;;;;;6.75;1.70;;;6.40;99.90;;;;;;5075921;28;20024;-78
2023/11/11 00:56:21;;;;;;;3.72;1.80;;;6.30;99.90;;;;;;5076338;28;20070;-77
2023/11/11 00:58:48;;;;;;;3.47;1.80;;;6.40;99.90;;;;;;5076710;28;20025;-77
2023/11/11 01:01:13;;;;;;;3.00;1.85;;;6.40;99.90;;;;;;5076507;28;20463;-78
2023/11/11 01:03:39;;;;;;;2.88;1.67;;;6.40;99.90;;;;;;5076355;28;20023;-78
2023/11/11 01:06:05;;;;;;;1.83;1.23;;;6.40;99.90;;;;;;5076055;28;20017;-78
2023/11/11 01:08:31;;;;;;;5.10;1.65;;;6.40;99.90;;;;;;5076614;28;20028;-79
2023/11/11 01:10:57;;;;;;;4.13;1.70;;;6.50;99.90;;;;;;5076177;28;20123;-78
2023/11/11 01:13:23;;;;;;;3.78;1.88;;;6.40;99.90;;;;;;5075739;28;20433;-79
2023/11/11 01:15:52;;;;;;;3.92;1.65;;;6.40;99.90;;;;;;5076432;28;20033;-78
2023/11/11 01:18:18;;;;;;;2.50;1.50;;;6.40;99.90;;;;;;5077951;28;20033;-79
2023/11/11 01:20:45;;;;;;;5.20;1.83;;;6.40;99.90;;;;;;5076942;28;20021;-78
2023/11/11 01:23:11;;;;;;;3.30;1.95;;;6.40;99.90;;;;;;5076940;28;20107;-78
2023/11/11 01:25:37;;;;;;;7.25;2.63;;;6.40;99.90;;;;;;5077291;28;20123;-77
2023/11/11 01:28:03;;;;;;;2.88;2.38;;;6.40;99.90;;;;;;5076728;28;20071;-78
2023/11/11 01:30:29;;;;;;;7.75;3.78;;;6.40;99.90;;;;;;5077107;28;20028;-78
2023/11/11 01:32:54;;;;;;;5.80;3.20;;;6.40;99.90;;;;;;5076961;28;20025;-78
2023/11/11 01:35:20;;;;;;;5.22;3.30;;;6.40;99.90;;;;;;5076818;28;20036;-78
2023/11/11 01:37:46;;;;;;;3.80;3.17;;;6.40;99.90;;;;;;5076475;28;20024;-78
2023/11/11 01:40:12;;;;;;;5.53;2.80;;;6.40;99.90;;;;;;5076498;28;20017;-78
2023/11/11 01:42:39;;;;;;;9.05;2.92;;;6.40;99.90;;;;;;5076135;28;20123;-77
2023/11/11 01:45:05;;;;;;;4.70;2.60;;;6.50;99.90;;;;;;5076584;28;20077;-78
2023/11/11 01:47:31;;;;;;;7.20;2.50;;;6.40;99.90;;;;;;5076587;28;20379;-78
2023/11/11 01:49:56;;;;;;;6.20;2.78;;;6.40;99.90;;;;;;5076410;28;20059;-78
2023/11/11 01:52:22;;;;;;;7.53;3.13;;;6.50;99.90;;;;;;5076137;28;20360;-78
2023/11/11 01:54:48;;;;;;;4.88;2.42;;;6.50;99.90;;;;;;5075993;28;20084;-78
2023/11/11 01:57:14;;;;;;;4.13;2.25;;;6.50;99.90;;;;;;5075647;28;20340;-78
2023/11/11 01:59:40;;;;;;;5.22;2.00;;;6.50;99.90;;;;;;5075083;28;20029;-78
2023/11/11 02:02:06;;;;;;;2.35;1.52;;;6.50;99.90;;;;;;5074615;28;20029;-78
2023/11/11 02:04:33;;;;;;;3.30;1.90;;;6.50;99.90;;;;;;5075145;28;20391;-78
2023/11/11 02:06:59;;;;;;;2.95;1.73;;;6.50;99.90;;;;;;5074882;28;20181;-78
2023/11/11 02:09:25;;;;;;;5.93;2.20;;;6.50;99.90;;;;;;5074756;28;20119;-78
2023/11/11 02:11:52;;;;;;;3.08;1.85;;;6.40;99.90;;;;;;5074178;28;20127;-78
2023/11/11 02:14:20;;;;;;;3.50;1.90;;;6.40;99.90;;;;;;5074111;28;20482;-78
2023/11/11 02:16:46;;;;;;;4.30;2.42;;;6.40;99.90;;;;;;5074702;28;20036;-78
2023/11/11 02:19:11;;;;;;;4.05;2.63;;;6.40;99.90;;;;;;5074266;28;20032;-78
2023/11/11 02:21:37;;;;;;;4.55;2.88;;;6.50;99.90;;;;;;5074681;28;20039;-78
2023/11/11 02:24:03;;;;;;;9.57;4.43;;;6.40;99.90;;;;;;5074841;28;20034;-78
2023/11/11 02:26:29;;;;;;;6.97;3.70;;;6.40;99.90;;;;;;5074795;28;20458;-78
2023/11/11 02:28:55;;;;;;;9.48;5.68;;;6.40;99.90;;;;;;5074321;28;20024;-78
2023/11/11 02:31:21;;;;;;;15.02;7.00;;;6.40;99.90;;;;;;5075005;28;20032;-77
2023/11/11 02:33:48;;;;;;;14.73;8.00;;;6.50;99.90;;;;;;5075714;28;20036;-77
2023/11/11 02:36:14;;;;;;;19.48;9.02;;;6.50;99.90;;;;;;5055830;28;20406;-77
2023/11/11 02:38:40;;;;;;;21.00;9.57;;;6.40;99.90;;;;;;5054965;28;20037;-77
2023/11/11 02:41:06;;;;;;;21.33;10.27;;;6.40;99.90;;;;;;5055043;28;20363;-78
2023/11/11 02:43:32;;;;;;;27.67;12.63;;;6.50;99.90;;;;;;5055006;28;20102;-78
2023/11/11 02:45:58;;;;;;;28.35;12.13;;;6.50;99.90;;;;;;5055664;28;20033;-77
2023/11/11 02:48:24;;;;;;;29.40;14.68;;;6.50;99.90;;;;;;5054963;28;20051;-78
2023/11/11 02:50:49;;;;;;;33.72;15.50;;;6.60;99.90;;;;;;5054397;28;20025;-77
2023/11/11 02:53:15;;;;;;;35.17;15.45;;;6.60;99.90;;;;;;5055227;28;20036;-79
2023/11/11 02:55:40;;;;;;;43.70;18.83;;;6.60;99.90;;;;;;5055022;28;20422;-78
2023/11/11 02:58:06;;;;;;;38.83;18.20;;;6.60;99.90;;;;;;5054968;28;20053;-78
2023/11/11 03:00:32;;;;;;;36.55;19.48;;;6.60;99.90;;;;;;5054685;28;20025;-78
2023/11/11 03:02:58;;;;;;;43.83;20.45;;;6.60;99.90;;;;;;5055093;28;20075;-77
2023/11/11 03:05:23;;;;;;;45.28;20.08;;;6.60;99.90;;;;;;5054608;28;20033;-78
2023/11/11 03:07:49;;;;;;;46.03;21.15;;;6.70;99.90;;;;;;5053860;28;20364;-78
2023/11/11 03:10:15;;;;;;;50.00;21.77;;;6.70;99.90;;;;;;5053810;28;20108;-78
2023/11/11 03:12:41;;;;;;;50.53;23.25;;;6.70;99.90;;;;;;5052889;28;20040;-78
2023/11/11 03:15:08;;;;;;;51.40;22.92;;;6.70;99.90;;;;;;5055012;28;20060;-77
2023/11/11 03:17:33;;;;;;;53.72;24.30;;;6.70;99.90;;;;;;5055874;28;20141;-77
2023/11/11 03:19:59;;;;;;;59.08;25.10;;;6.80;99.90;;;;;;5055424;28;20061;-77
2023/11/11 03:22:25;;;;;;;57.83;25.50;;;6.80;99.90;;;;;;5055163;28;20040;-77
2023/11/11 03:24:50;;;;;;;59.05;25.98;;;6.80;99.90;;;;;;5055270;28;20064;-78
2023/11/11 03:27:16;;;;;;;59.70;25.77;;;6.80;99.90;;;;;;5057025;28;20092;-78
2023/11/11 03:29:42;;;;;;;63.05;27.27;;;6.90;99.90;;;;;;5057948;28;20067;-79
2023/11/11 03:32:08;;;;;;;59.78;27.55;;;6.90;99.90;;;;;;5055566;28;20119;-79
2023/11/11 03:34:33;;;;;;;61.67;27.67;;;6.90;99.90;;;;;;5057385;28;20027;-79
2023/11/11 03:36:59;;;;;;;63.17;28.05;;;7.00;99.90;;;;;;5056893;28;20029;-79
2023/11/11 03:39:26;;;;;;;65.80;29.05;;;7.00;99.90;;;;;;5055888;28;20039;-79
2023/11/11 03:41:52;;;;;;;65.97;29.58;;;6.90;99.90;;;;;;5057241;28;20080;-79
2023/11/11 03:44:17;;;;;;;66.72;29.65;;;7.00;99.90;;;;;;5056178;28;20037;-79
2023/11/11 03:46:43;;;;;;;69.82;32.15;;;7.00;99.90;;;;;;5055839;28;20056;-79
2023/11/11 03:49:09;;;;;;;72.63;31.33;;;7.00;99.90;;;;;;5053921;28;20021;-80
2023/11/11 03:51:35;;;;;;;74.50;31.98;;;6.90;99.90;;;;;;5053908;28;20114;-79
2023/11/11 03:54:01;;;;;;;79.07;34.35;;;7.00;99.90;;;;;;5055863;28;20033;-79
2023/11/11 03:56:27;;;;;;;81.22;33.92;;;6.90;99.90;;;;;;5057583;28;20039;-79
2023/11/11 03:58:52;;;;;;;74.93;33.63;;;6.80;99.90;;;;;;5057681;28;20051;-79
2023/11/11 04:01:18;;;;;;;75.03;32.42;;;6.80;99.90;;;;;;5058008;28;20108;-79
2023/11/11 04:03:44;;;;;;;70.47;32.85;;;6.80;99.90;;;;;;5057640;28;20021;-79
2023/11/11 04:06:10;;;;;;;76.63;33.58;;;6.80;99.90;;;;;;5057758;28;20111;-79
2023/11/11 04:08:37;;;;;;;80.53;34.35;;;6.80;99.90;;;;;;5057325;28;20029;-79
2023/11/11 04:11:06;;;;;;;76.93;34.50;;;6.80;99.90;;;;;;5057212;28;20517;-79
2023/11/11 04:13:33;;;;;;;82.03;34.92;;;6.80;99.90;;;;;;5057538;28;20033;-80
2023/11/11 04:15:59;;;;;;;87.22;38.10;;;6.80;99.90;;;;;;5057071;28;20475;-80
2023/11/11 04:18:25;;;;;;;82.32;35.47;;;6.70;99.90;;;;;;5057030;28;20029;-79
2023/11/11 04:20:52;;;;;;;78.28;34.08;;;6.70;99.90;;;;;;5057180;28;20064;-80
2023/11/11 04:23:18;;;;;;;84.15;34.90;;;6.70;99.90;;;;;;5057201;28;20033;-80
2023/11/11 04:25:43;;;;;;;76.63;35.70;;;6.60;99.90;;;;;;5057160;28;20047;-79
2023/11/11 04:28:09;;;;;;;84.82;36.13;;;6.60;99.90;;;;;;5057350;28;20122;-80
2023/11/11 04:30:35;;;;;;;81.18;33.83;;;6.70;99.90;;;;;;5056836;28;20106;-80
2023/11/11 04:33:00;;;;;;;82.75;36.30;;;6.70;99.90;;;;;;5056426;28;20485;-80
2023/11/11 04:35:26;;;;;;;85.20;37.50;;;6.70;99.90;;;;;;5056832;28;20112;-80
2023/11/11 04:37:52;;;;;;;85.13;35.45;;;6.70;99.90;;;;;;5059206;28;20053;-80
2023/11/11 04:40:18;;;;;;;76.63;33.03;;;6.70;99.90;;;;;;5058512;28;20029;-80
2023/11/11 04:42:43;;;;;;;86.65;34.95;;;6.70;99.90;;;;;;5057368;28;20439;-80
2023/11/11 04:45:10;;;;;;;81.13;35.70;;;6.70;99.90;;;;;;5057698;28;20032;-80
2023/11/11 04:47:36;;;;;;;77.00;33.47;;;6.70;99.90;;;;;;5058582;28;20029;-81
2023/11/11 04:50:02;;;;;;;79.65;34.92;;;6.70;99.90;;;;;;5059139;28;20111;-81
2023/11/11 04:52:28;;;;;;;76.93;34.05;;;6.70;99.90;;;;;;5058563;28;20029;-80
2023/11/11 04:54:54;;;;;;;80.00;34.42;;;6.70;99.90;;;;;;5058477;28;20029;-81
2023/11/11 04:57:20;;;;;;;88.43;35.42;;;6.60;99.90;;;;;;5058406;28;20028;-80
2023/11/11 04:59:45;;;;;;;83.07;34.88;;;6.60;99.90;;;;;;5059939;28;20467;-79
2023/11/11 05:02:11;;;;;;;82.95;34.13;;;6.60;99.90;;;;;;5059245;28;20071;-79
2023/11/11 05:04:36;;;;;;;88.57;34.72;;;6.60;99.90;;;;;;5057405;28;20064;-79
2023/11/11 05:07:03;;;;;;;81.22;35.03;;;6.70;99.90;;;;;;5058788;28;20036;-79
2023/11/11 05:09:29;;;;;;;77.22;33.92;;;6.70;99.90;;;;;;5059089;28;20049;-80
2023/11/11 05:11:55;;;;;;;82.10;35.22;;;6.70;99.90;;;;;;5058950;28;20041;-80
2023/11/11 05:14:23;;;;;;;80.60;33.97;;;6.60;99.90;;;;;;5058646;28;20032;-79
2023/11/11 05:16:52;;;;;;;80.50;34.85;;;6.70;99.90;;;;;;5058754;28;20430;-80
2023/11/11 05:19:18;;;;;;;77.10;33.33;;;6.70;99.90;;;;;;5058207;28;20021;-80
2023/11/11 05:21:44;;;;;;;75.43;34.08;;;6.70;99.90;;;;;;5059569;28;20058;-80
2023/11/11 05:24:11;;;;;;;83.68;34.90;;;;;;;;;;5058420;28;20087;-80
2023/11/11 05:26:38;;;;;;;78.97;33.88;;;;;;;;;;5058538;28;20029;-79
2023/11/11 05:29:05;;;;;;;78.90;34.55;;;6.60;99.90;;;;;;5058857;28;20459;-79
2023/11/11 05:31:31;;;;;;;71.60;33.00;;;6.60;99.90;;;;;;5058231;28;20082;-79
2023/11/11 05:33:57;;;;;;;72.80;34.30;;;6.60;99.90;;;;;;5057693;28;20479;-79
2023/11/11 05:36:24;;;;;;;68.65;32.50;;;6.60;99.90;;;;;;5058124;28;20379;-79
2023/11/11 05:38:50;;;;;;;64.35;33.80;;;6.60;99.90;;;;;;5057755;28;20025;-79
2023/11/11 05:41:16;;;;;;;67.53;34.40;;;6.60;99.90;;;;;;5057961;28;20029;-80
2023/11/11 05:43:41;;;;;;;70.13;33.60;;;6.60;99.90;;;;;;5058293;28;20027;-80
2023/11/11 05:46:08;;;;;;;66.88;33.78;;;6.60;99.90;;;;;;5058773;28;20024;-80
2023/11/11 05:48:35;;;;;;;69.43;34.45;;;6.60;99.90;;;;;;5057349;28;20467;-80
2023/11/11 05:51:01;;;;;;;69.63;34.65;;;6.60;99.90;;;;;;5057908;28;20017;-79
2023/11/11 05:53:26;;;;;;;62.38;31.25;;;6.60;99.90;;;;;;5057688;28;20407;-80
2023/11/11 05:55:52;;;;;;;69.10;32.15;;;6.60;99.90;;;;;;5058940;28;20036;-80
2023/11/11 05:58:18;;;;;;;70.00;31.58;;;6.60;99.90;;;;;;5057335;28;20021;-79
2023/11/11 06:00:43;;;;;;;59.03;30.90;;;6.60;99.90;;;;;;5059169;28;20032;-79
2023/11/11 06:03:09;;;;;;;56.75;28.17;;;6.60;99.90;;;;;;5058286;28;20028;-80
2023/11/11 06:05:36;;;;;;;54.47;26.45;;;6.50;99.90;;;;;;5057977;28;20025;-80
2023/11/11 06:08:02;;;;;;;53.60;25.55;;;6.50;99.90;;;;;;5056901;28;20024;-79
2023/11/11 06:10:29;;;;;;;55.55;26.42;;;6.50;99.90;;;;;;5057047;28;20024;-81
2023/11/11 06:12:57;;;;;;;48.88;26.27;;;6.50;99.90;;;;;;5057364;28;20474;-79
2023/11/11 06:15:24;;;;;;;47.08;25.17;;;6.50;99.90;;;;;;5057203;28;20025;-79
2023/11/11 06:17:50;;;;;;;60.20;33.05;;;6.50;99.90;;;;;;5056509;28;20055;-80
2023/11/11 06:20:17;;;;;;;57.45;30.52;;;6.50;99.90;;;;;;5057028;28;20025;-81
2023/11/11 06:22:42;;;;;;;59.00;30.35;;;6.40;99.90;;;;;;5057738;28;20459;-82
2023/11/11 06:25:08;;;;;;;66.50;36.20;;;6.40;99.90;;;;;;5057197;28;20029;-80
2023/11/11 06:27:34;;;;;;;77.78;45.17;;;6.40;99.90;;;;;;5057080;28;20374;-80
2023/11/11 06:30:00;;;;;;;71.70;39.80;;;6.40;99.90;;;;;;5057734;28;20025;-80
2023/11/11 06:32:26;;;;;;;51.75;32.70;;;6.30;99.90;;;;;;5057464;28;20032;-80
2023/11/11 06:34:52;;;;;;;42.72;22.50;;;6.50;99.90;;;;;;5056547;28;20100;-79
2023/11/11 06:37:19;;;;;;;38.40;20.08;;;6.30;99.90;;;;;;5056568;28;20029;-80
2023/11/11 06:39:45;;;;;;;37.15;20.00;;;6.30;99.90;;;;;;5056626;28;20383;-81
2023/11/11 06:42:10;;;;;;;36.40;21.88;;;6.30;99.90;;;;;;5055843;28;20025;-81
2023/11/11 06:44:36;;;;;;;37.15;21.23;;;6.40;99.90;;;;;;5056946;28;20450;-80
2023/11/11 06:47:01;;;;;;;36.53;19.75;;;6.30;99.90;;;;;;5057021;28;20371;-81
2023/11/11 06:49:27;;;;;;;42.20;21.48;;;6.40;99.90;;;;;;5056034;28;20036;-80
2023/11/11 06:51:53;;;;;;;34.78;19.85;;;6.30;99.90;;;;;;5055774;28;20033;-80
2023/11/11 06:54:18;;;;;;;27.92;16.15;;;6.10;99.90;;;;;;5056683;28;20096;-79
2023/11/11 06:56:44;;;;;;;26.35;15.88;;;6.40;99.90;;;;;;5055641;28;20019;-80
2023/11/11 06:59:11;;;;;;;34.33;17.63;;;6.40;99.90;;;;;;5054755;28;20078;-80
2023/11/11 07:01:37;;;;;;;34.85;19.70;;;6.60;99.90;;;;;;5054799;28;20029;-80
2023/11/11 07:04:03;;;;;;;25.63;13.20;;;6.40;99.90;;;;;;5054740;28;20037;-79
2023/11/11 07:06:29;;;;;;;20.95;12.30;;;6.40;99.90;;;;;;5054519;28;20032;-80
2023/11/11 07:08:55;;;;;;;19.75;10.93;;;6.50;99.90;;;;;;5055021;28;20091;-78
2023/11/11 07:11:21;;;;;;;22.27;11.82;;;6.40;99.90;;;;;;5053884;28;20521;-80
2023/11/11 07:13:47;;;;;;;21.55;12.55;;;6.50;99.90;;;;;;5054525;28;20028;-81
2023/11/11 07:16:16;;;;;;;24.02;12.48;;;6.50;99.90;;;;;;5053499;28;20031;-81
2023/11/11 07:18:43;;;;;;;18.75;10.25;;;6.50;99.90;;;;;;5053954;28;20379;-80
2023/11/11 07:21:22;;;;;;;20.30;12.23;;;6.50;99.90;;;;;;5054015;28;20494;-79
2023/11/11 07:23:49;;;;;;;32.55;20.02;;;6.40;99.90;;;;;;5053786;28;20612;-79
2023/11/11 07:26:16;;;;;;;30.83;18.65;;;6.50;99.90;;;;;;5054850;28;20025;-79
2023/11/11 07:28:43;;;;;;;23.27;12.80;;;6.60;99.90;;;;;;5057464;28;20028;-79
2023/11/11 07:31:10;;;;;;;19.55;9.88;;;6.60;99.90;;;;;;5058419;28;20082;-80
2023/11/11 07:33:36;;;;;;;21.33;11.13;;;;;;;;;;5058845;28;20032;-80
2023/11/11 07:36:03;;;;;;;25.10;17.20;;;6.90;99.90;;;;;;5059654;28;20025;-79
2023/11/11 07:38:28;;;;;;;26.08;15.38;;;6.60;99.90;;;;;;5058873;28;20025;-79
2023/11/11 07:40:54;;;;;;;25.83;18.05;;;7.60;99.90;;;;;;5058102;28;20490;-79
2023/11/11 07:43:19;;;;;;;26.35;16.25;;;8.40;99.90;;;;;;5058231;28;20119;-80
2023/11/11 07:45:48;;;;;;;16.33;9.80;;;8.50;99.90;;;;;;5057793;28;20039;-79
2023/11/11 07:48:13;;;;;;;18.75;12.75;;;8.30;99.90;;;;;;5057714;28;20029;-79
2023/11/11 07:50:39;;;;;;;22.42;15.32;;;8.20;99.90;;;;;;5057500;28;20082;-78
2023/11/11 07:53:05;;;;;;;30.05;21.55;;;7.80;99.90;;;;;;5057138;28;20032;-80
2023/11/11 07:55:30;;;;;;;15.30;8.60;;;7.50;99.90;;;;;;5057589;28;20029;-80
2023/11/11 07:57:56;;;;;;;14.55;10.23;;;7.40;99.90;;;;;;5058312;28;20017;-79
2023/11/11 08:00:21;;;;;;;15.75;9.85;;;7.30;99.90;;;;;;5058269;28;20104;-79
2023/11/11 08:02:48;;;;;;;12.32;6.15;;;7.30;99.90;;;;;;5057396;28;20032;-79
2023/11/11 08:05:14;;;;;;;10.45;5.88;;;7.20;99.90;;;;;;5057617;28;20033;-80
2023/11/11 08:07:39;;;;;;;9.13;5.90;;;7.10;99.90;;;;;;5057792;28;20033;-80
2023/11/11 08:10:06;;;;;;;13.82;7.13;;;7.10;99.90;;;;;;5057407;28;20025;-81
2023/11/11 08:12:32;;;;;;;10.18;6.10;;;6.90;99.90;;;;;;5057033;28;20485;-80
2023/11/11 08:15:00;;;;;;;19.35;10.57;;;7.00;99.90;;;;;;5057413;28;20113;-79
2023/11/11 08:17:26;;;;;;;22.63;13.38;;;7.00;99.90;;;;;;5058212;28;20021;-80
2023/11/11 08:19:53;;;;;;;19.17;8.73;;;7.00;99.90;;;;;;5057671;28;20467;-79
2023/11/11 08:22:19;;;;;;;13.80;6.55;;;6.90;99.90;;;;;;5057713;28;20538;-79
2023/11/11 08:24:45;;;;;;;12.80;5.25;;;7.20;99.90;;;;;;5057753;28;20061;-79
2023/11/11 08:27:11;;;;;;;9.10;5.18;;;;;;;;;;5059106;28;20067;-80
2023/11/11 08:29:37;;;;;;;12.43;5.50;;;7.20;99.90;;;;;;5057935;28;20029;-81
2023/11/11 08:32:02;;;;;;;7.75;4.85;;;7.60;99.90;;;;;;5057144;28;20033;-79
2023/11/11 08:34:31;;;;;;;9.55;5.90;;;7.70;99.90;;;;;;5057184;28;20029;-80
2023/11/11 08:36:57;;;;;;;8.43;5.93;;;7.60;99.90;;;;;;5056735;28;20467;-80
2023/11/11 08:39:24;;;;;;;9.82;6.55;;;7.60;99.90;;;;;;5056630;28;20028;-80
2023/11/11 08:41:50;;;;;;;14.85;6.82;;;7.70;99.90;;;;;;5057324;28;20027;-80
2023/11/11 08:44:16;;;;;;;12.10;7.22;;;7.60;99.90;;;;;;5057478;28;20033;-80
2023/11/11 08:46:41;;;;;;;14.48;8.15;;;7.60;99.90;;;;;;5058242;28;20546;-80
2023/11/11 08:49:07;;;;;;;17.83;9.23;;;7.50;99.90;;;;;;5058546;28;20056;-80
2023/11/11 08:51:33;;;;;;;19.90;13.02;;;7.70;99.90;;;;;;5057982;28;20064;-79
2023/11/11 08:54:00;;;;;;;75.65;41.95;;;7.70;99.90;;;;;;5058456;28;20394;-80
2023/11/11 08:56:28;;;;;;;33.35;22.33;;;7.90;99.90;;;;;;5056566;28;20025;-82
2023/11/11 08:58:55;;;;;;;32.45;21.25;;;8.00;99.90;;;;;;5055471;28;20025;-81
2023/11/11 09:01:21;;;;;;;38.30;23.70;;;7.80;99.90;;;;;;5056673;28;20028;-80
2023/11/11 09:03:49;;;;;;;25.02;14.55;;;8.50;99.90;;;;;;5056186;28;20435;-81
2023/11/11 09:06:17;;;;;;;15.52;12.60;;;9.20;99.90;;;;;;5056338;28;20032;-80
2023/11/11 09:08:43;;;;;;;16.50;10.40;;;9.80;99.90;;;;;;5056050;28;20485;-76
2023/11/11 09:11:11;;;;;;;15.40;10.18;;;9.90;98.80;;;;;;5055699;28;20403;-80
2023/11/11 09:13:36;;;;;;;15.93;10.93;;;9.60;97.60;;;;;;5055434;28;20029;-80
2023/11/11 09:16:03;;;;;;;16.10;12.10;;;9.40;99.90;;;;;;5056147;28;20040;-80
2023/11/11 09:18:29;;;;;;;17.13;13.10;;;9.30;99.90;;;;;;5056475;28;20348;-80
2023/11/11 09:20:55;;;;;;;21.55;13.93;;;8.90;99.90;;;;;;5055862;28;20486;-80
2023/11/11 09:23:21;;;;;;;21.38;15.02;;;8.80;99.90;;;;;;5056367;28;20116;-80
2023/11/11 09:25:47;;;;;;;20.02;14.77;;;8.50;99.90;;;;;;5055744;28;20065;-79
2023/11/11 09:28:12;;;;;;;18.33;14.57;;;8.60;99.90;;;;;;5055611;28;20036;-80
2023/11/11 09:30:38;;;;;;;17.05;13.75;;;9.00;99.90;;;;;;5055986;28;20029;-78
2023/11/11 09:33:05;;;;;;;18.27;12.52;;;9.50;99.90;;;;;;5055781;28;20025;-78
2023/11/11 09:35:31;;;;;;;19.73;13.95;;;9.50;61.80;;;;;;5055745;28;20021;-79
2023/11/11 09:37:56;;;;;;;18.08;13.38;;;9.40;88.90;;;;;;5056335;28;20116;-78
2023/11/11 09:40:22;;;;;;;19.10;13.43;;;9.90;73.50;;;;;;5056267;28;20459;-79
2023/11/11 09:42:48;;;;;;;20.02;14.90;;;9.40;58.10;;;;;;5056423;28;20036;-79
2023/11/11 09:45:14;;;;;;;21.20;15.75;;;9.10;94.70;;;;;;5057141;28;20041;-79
2023/11/11 09:47:44;;;;;;;23.63;14.75;;;8.90;99.90;;;;;;5056007;28;20028;-79
2023/11/11 09:50:12;;;;;;;24.27;16.02;;;8.60;99.90;;;;;;5055497;28;20115;-78
2023/11/11 09:52:38;;;;;;;24.63;17.15;;;8.40;99.90;;;;;;5054618;28;20363;-79
2023/11/11 09:55:05;;;;;;;22.23;14.95;;;8.40;99.90;;;;;;5055578;28;20036;-78
2023/11/11 09:57:33;;;;;;;20.13;15.05;;;8.30;99.90;;;;;;5056005;28;20021;-78
2023/11/11 10:00:00;;;;;;;23.70;14.55;;;8.20;99.90;;;;;;5054798;28;20025;-77
2023/11/11 10:02:26;;;;;;;20.98;14.07;;;8.20;99.90;;;;;;5055083;28;20024;-78
2023/11/11 10:04:53;;;;;;;20.83;13.38;;;8.00;99.90;;;;;;5055112;28;20099;-78
2023/11/11 10:07:21;;;;;;;17.42;12.70;;;8.00;99.90;;;;;;5054190;28;20033;-78
2023/11/11 10:09:49;;;;;;;20.40;12.88;;;8.30;99.90;;;;;;5054851;28;20029;-78
2023/11/11 10:12:14;;;;;;;16.33;12.25;;;8.80;99.90;;;;;;5053975;28;20379;-78
2023/11/11 10:14:40;;;;;;;15.02;12.43;;;9.30;99.90;;;;;;5054974;28;20025;-80
2023/11/11 10:17:10;;;;;;;18.95;12.95;;;9.30;72.70;;;;;;5055176;28;20029;-78
2023/11/11 10:19:41;;;;;;;16.83;11.68;;;9.00;98.00;;;;;;5054770;28;20025;-78
2023/11/11 10:22:08;;;;;;;16.27;11.35;;;9.20;98.70;;;;;;5054805;28;20036;-78
2023/11/11 10:24:35;;;;;;;22.23;12.40;;;9.20;94.40;;;;;;5054142;28;20510;-78
2023/11/11 10:27:00;;;;;;;17.15;11.48;;;9.00;93.60;;;;;;5054871;28;20467;-78
2023/11/11 10:29:26;;;;;;;13.05;11.23;;;9.10;99.90;;;;;;5054782;28;20025;-78
2023/11/11 10:31:52;;;;;;;15.15;9.88;;;9.00;93.80;;;;;;5054158;28;20437;-78
2023/11/11 10:34:17;;;;;;;15.73;10.57;;;8.90;83.20;;;;;;5054807;28;20036;-79
2023/11/11 10:36:45;;;;;;;18.15;11.82;;;8.80;93.30;;;;;;5054410;28;20059;-79
2023/11/11 10:39:12;;;;;;;21.90;12.82;;;8.50;99.90;;;;;;5054270;28;20142;-78
2023/11/11 10:41:39;;;;;;;21.33;13.82;;;8.50;99.90;;;;;;5054170;28;20466;-79
2023/11/11 10:44:07;;;;;;;18.85;13.73;;;8.30;99.90;;;;;;5054336;28;20429;-77
2023/11/11 10:46:35;;;;;;;21.73;15.32;;;8.20;99.90;;;;;;5054201;28;20367;-79
2023/11/11 10:49:03;;;;;;;23.42;16.92;;;8.20;99.90;;;;;;5054000;28;20473;-79
2023/11/11 10:51:30;;;;;;;32.03;21.02;;;8.00;99.90;;;;;;5053738;28;20025;-77
2023/11/11 10:53:59;;;;;;;40.45;23.83;;;8.00;99.90;;;;;;5053817;28;20111;-78
2023/11/11 10:56:27;;;;;;;46.05;26.65;;;8.00;99.90;;;;;;5053681;28;20021;-79
2023/11/11 10:58:55;;;;;;;29.52;17.88;;;8.10;99.90;;;;;;5054315;28;20502;-77
2023/11/11 11:01:21;;;;;;;31.60;18.38;;;7.90;99.90;;;;;;5054221;28;20490;-79
2023/11/11 11:03:48;;;;;;;26.52;19.42;;;8.20;99.90;;;;;;5053589;28;20379;-80
2023/11/11 11:06:37;;;;;;;23.38;18.50;;;8.30;99.90;;;;;;5054281;28;20021;-79
2023/11/11 11:12:13;;;;;;;28.35;19.00;;;8.20;99.90;;;;;;5062515;22;20427;-75
2023/11/11 11:14:50;;;;;;;25.60;17.83;;;8.10;99.90;;;;;;5050696;28;20025;-75
2023/11/11 11:17:16;;;;;;;30.08;20.30;;;8.10;99.90;;;;;;5051209;28;20502;-75
2023/11/11 11:20:08;;;;;;;34.30;20.58;;;8.10;99.90;;;;;;5051185;28;20034;-76
2023/11/11 11:22:37;;;;;;;33.55;20.67;;;8.00;99.90;;;;;;5050941;28;20464;-76
2023/11/11 11:25:33;;;;;;;34.28;22.25;;;8.10;99.90;;;;;;5050959;28;20029;-75
2023/11/11 11:28:16;;;;;;;32.35;21.45;;;8.20;99.90;;;;;;5050203;28;20028;-74
2023/11/11 11:30:44;;;;;;;40.55;21.83;;;8.10;99.90;;;;;;5050873;28;20071;-75
2023/11/11 11:33:14;;;;;;;31.67;21.65;;;8.20;99.90;;;;;;5051224;28;20036;-75
2023/11/11 11:35:44;;;;;;;33.78;21.25;;;8.30;99.90;;;;;;5050481;28;20032;-75
2023/11/11 11:38:10;;;;;;;30.80;20.25;;;8.40;99.90;;;;;;5050525;28;20021;-75
2023/11/11 11:40:37;;;;;;;31.17;20.60;;;8.40;99.90;;;;;;5050836;28;20094;-75
2023/11/11 11:43:09;;;;;;;30.05;19.67;;;8.50;99.90;;;;;;5050728;28;20068;-75
2023/11/11 11:45:36;;;;;;;30.25;18.80;;;8.60;99.90;;;;;;5050809;28;20079;-75
2023/11/11 11:48:01;;;;;;;27.38;18.25;;;8.50;99.90;;;;;;5050545;28;20032;-75
2023/11/11 11:50:27;;;;;;;28.65;18.30;;;8.70;99.90;;;;;;5050738;28;20029;-75
2023/11/11 11:52:54;;;;;;;23.67;17.38;;;8.80;99.90;;;;;;5050500;28;20032;-75
2023/11/11 11:55:20;;;;;;;27.63;17.70;;;8.80;99.70;;;;;;5050859;28;20029;-75
2023/11/11 11:57:56;;;;;;;26.73;17.92;;;8.80;99.90;;;;;;5050261;28;20051;-75
2023/11/11 12:00:22;;;;;;;25.40;17.60;;;8.90;93.50;;;;;;5050521;28;20146;-75
2023/11/11 12:02:49;;;;;;;31.45;18.05;;;8.90;99.90;;;;;;5050377;28;20526;-76
2023/11/11 12:05:15;;;;;;;26.30;17.45;;;8.90;99.90;;;;;;5049989;28;20026;-75
2023/11/11 12:07:47;;;;;;;24.33;15.73;;;9.00;96.90;;;;;;5050350;28;20021;-74
2023/11/11 12:10:13;;;;;;;25.40;16.73;;;8.90;98.00;;;;;;5049343;28;20062;-74
2023/11/11 12:12:39;;;;;;;23.90;15.57;;;8.80;88.90;;;;;;5050326;28;20432;-75
2023/11/11 12:15:15;;;;;;;20.63;13.50;;;8.80;98.60;;;;;;5049779;28;20053;-74
2023/11/11 12:17:42;;;;;;;20.90;14.55;;;8.80;88.10;;;;;;5049907;28;20037;-74
2023/11/11 12:20:13;;;;;;;26.00;15.57;;;8.90;86.50;;;;;;5050076;28;20060;-75
2023/11/11 12:22:44;;;;;;;26.85;15.43;;;9.10;94.00;;;;;;5039341;28;20092;-75
2023/11/11 12:25:10;;;;;;;28.95;16.73;;;9.20;87.80;;;;;;5036226;28;20121;-75
2023/11/11 12:27:37;;;;;;;24.13;16.23;;;9.30;91.40;;;;;;5036626;28;20498;-75
2023/11/11 12:30:19;;;;;;;25.40;16.38;;;9.20;66.40;;;;;;5036464;28;20096;-75
2023/11/11 12:33:01;;;;;;;21.20;14.85;;;9.40;60.50;;;;;;5036240;28;20450;-77
2023/11/11 12:35:28;;;;;;;21.55;14.23;;;9.60;57.40;;;;;;5036929;28;20021;-76
2023/11/11 12:37:54;;;;;;;21.80;15.18;;;9.60;31.60;;;;;;5036114;28;20552;-75
2023/11/11 12:40:33;;;;;;;22.45;15.60;;;9.80;34.00;;;;;;5036290;28;20030;-75
2023/11/11 12:42:59;;;;;;;22.58;14.95;;;9.80;35.70;;;;;;5036701;28;20041;-75